sensor_id;sensor_type;location;lat;lon;timestamp;temperature;humidity
51661;DHT22;37741;49.748;8.490;2023-03-14T00:00:47;11.00;90.00
51661;DHT22;37741;49.748;8.490;2023-03-14T00:03:12;11.00;90.00
51661;DHT22;37741;49.748;8.490;2023-03-14T00:05:38;11.00;90.00
51661;DHT22;37741;49.748;8.490;2023-03-14T00:08:04;11.00;90.00
51661;DHT22;37741;49.748;8.490;2023-03-14T00:10:29;11.00;90.00
51661;DHT22;37741;49.748;8.490;2023-03-14T00:12:55;10.90;90.00
51661;DHT22;37741;49.748;8.490;2023-03-14T00:15:20;11.00;90.00
51661;DHT22;37741;49.748;8.490;2023-03-14T00:17:46;10.90;90.30
51661;DHT22;37741;49.748;8.490;2023-03-14T00:20:12;10.90;90.00
51661;DHT22;37741;49.748;8.490;2023-03-14T00:22:38;10.90;90.00
51661;DHT22;37741;49.748;8.490;2023-03-14T00:25:06;10.90;90.00
51661;DHT22;37741;49.748;8.490;2023-03-14T00:27:32;10.90;90.00
51661;DHT22;37741;49.748;8.490;2023-03-14T00:29:58;10.90;90.00
51661;DHT22;37741;49.748;8.490;2023-03-14T00:32:23;10.90;90.00
51661;DHT22;37741;49.748;8.490;2023-03-14T00:34:49;10.90;90.00
51661;DHT22;37741;49.748;8.490;2023-03-14T00:37:15;10.80;90.00
51661;DHT22;37741;49.748;8.490;2023-03-14T00:39:40;10.90;90.00
51661;DHT22;37741;49.748;8.490;2023-03-14T00:42:06;10.80;90.00
51661;DHT22;37741;49.748;8.490;2023-03-14T00:44:31;10.90;90.00
51661;DHT22;37741;49.748;8.490;2023-03-14T00:47:00;10.80;90.00
51661;DHT22;37741;49.748;8.490;2023-03-14T00:49:25;10.90;90.00
51661;DHT22;37741;49.748;8.490;2023-03-14T00:51:51;10.80;90.00
51661;DHT22;37741;49.748;8.490;2023-03-14T00:54:18;10.80;90.00
51661;DHT22;37741;49.748;8.490;2023-03-14T00:56:44;10.80;90.00
51661;DHT22;37741;49.748;8.490;2023-03-14T00:59:09;10.80;90.00
51661;DHT22;37741;49.748;8.490;2023-03-14T01:01:35;10.80;90.00
51661;DHT22;37741;49.748;8.490;2023-03-14T01:04:01;10.80;90.00
51661;DHT22;37741;49.748;8.490;2023-03-14T01:06:28;10.80;90.00
51661;DHT22;37741;49.748;8.490;2023-03-14T01:08:55;10.80;90.00
51661;DHT22;37741;49.748;8.490;2023-03-14T01:11:30;10.80;90.00
51661;DHT22;37741;49.748;8.490;2023-03-14T01:13:56;10.80;90.00
51661;DHT22;37741;49.748;8.490;2023-03-14T01:16:24;10.70;90.30
51661;DHT22;37741;49.748;8.490;2023-03-14T01:18:50;10.80;90.30
51661;DHT22;37741;49.748;8.490;2023-03-14T01:21:17;10.80;90.00
51661;DHT22;37741;49.748;8.490;2023-03-14T01:23:44;10.80;90.00
51661;DHT22;37741;49.748;8.490;2023-03-14T01:26:12;10.80;90.00
51661;DHT22;37741;49.748;8.490;2023-03-14T01:28:38;10.80;90.00
51661;DHT22;37741;49.748;8.490;2023-03-14T01:31:09;10.70;90.00
51661;DHT22;37741;49.748;8.490;2023-03-14T01:33:36;10.70;90.00
51661;DHT22;37741;49.748;8.490;2023-03-14T01:36:02;10.70;90.00
51661;DHT22;37741;49.748;8.490;2023-03-14T01:38:29;10.70;90.00
51661;DHT22;37741;49.748;8.490;2023-03-14T01:40:55;10.70;90.00
51661;DHT22;37741;49.748;8.490;2023-03-14T01:43:21;10.70;90.00
51661;DHT22;37741;49.748;8.490;2023-03-14T01:46:16;10.70;90.00
51661;DHT22;37741;49.748;8.490;2023-03-14T01:54:48;10.70;90.00
51661;DHT22;37741;49.748;8.490;2023-03-14T01:57:22;10.70;90.00
51661;DHT22;37741;49.748;8.490;2023-03-14T01:59:54;10.70;90.00
51661;DHT22;37741;49.748;8.490;2023-03-14T02:02:21;10.60;90.00
51661;DHT22;37741;49.748;8.490;2023-03-14T02:04:48;10.70;90.00
51661;DHT22;37741;49.748;8.490;2023-03-14T02:09:46;10.70;90.00
51661;DHT22;37741;49.748;8.490;2023-03-14T02:12:15;10.60;90.00
51661;DHT22;37741;49.748;8.490;2023-03-14T02:14:41;10.60;90.00
51661;DHT22;37741;49.748;8.490;2023-03-14T02:17:15;10.60;90.00
51661;DHT22;37741;49.748;8.490;2023-03-14T02:20:10;10.60;90.00
51661;DHT22;37741;49.748;8.490;2023-03-14T02:22:35;10.60;90.00
51661;DHT22;37741;49.748;8.490;2023-03-14T02:27:56;10.60;90.00
51661;DHT22;37741;49.748;8.490;2023-03-14T02:30:26;10.60;90.10
51661;DHT22;37741;49.748;8.490;2023-03-14T02:32:56;10.60;90.10
51661;DHT22;37741;49.748;8.490;2023-03-14T02:35:25;10.60;90.10
51661;DHT22;37741;49.748;8.490;2023-03-14T02:37:57;10.60;90.10
51661;DHT22;37741;49.748;8.490;2023-03-14T02:40:25;10.60;90.10
51661;DHT22;37741;49.748;8.490;2023-03-14T02:42:51;10.60;90.10
51661;DHT22;37741;49.748;8.490;2023-03-14T02:47:46;10.60;90.10
51661;DHT22;37741;49.748;8.490;2023-03-14T02:50:18;10.60;90.10
51661;DHT22;37741;49.748;8.490;2023-03-14T02:52:45;10.60;90.10
51661;DHT22;37741;49.748;8.490;2023-03-14T02:55:11;10.50;90.00
51661;DHT22;37741;49.748;8.490;2023-03-14T02:57:37;10.50;90.00
51661;DHT22;37741;49.748;8.490;2023-03-14T03:00:03;10.50;90.10
51661;DHT22;37741;49.748;8.490;2023-03-14T03:02:32;10.50;90.10
51661;DHT22;37741;49.748;8.490;2023-03-14T03:04:58;10.50;90.10
51661;DHT22;37741;49.748;8.490;2023-03-14T03:07:24;10.50;90.10
51661;DHT22;37741;49.748;8.490;2023-03-14T03:09:49;10.50;90.10
51661;DHT22;37741;49.748;8.490;2023-03-14T03:12:15;10.50;90.10
51661;DHT22;37741;49.748;8.490;2023-03-14T03:14:41;10.50;90.10
51661;DHT22;37741;49.748;8.490;2023-03-14T03:17:07;10.50;90.20
51661;DHT22;37741;49.748;8.490;2023-03-14T03:19:33;10.50;90.20
51661;DHT22;37741;49.748;8.490;2023-03-14T03:21:59;10.50;90.10
51661;DHT22;37741;49.748;8.490;2023-03-14T03:24:26;10.50;90.20
51661;DHT22;37741;49.748;8.490;2023-03-14T03:26:52;10.50;90.20
51661;DHT22;37741;49.748;8.490;2023-03-14T03:29:18;10.50;90.10
51661;DHT22;37741;49.748;8.490;2023-03-14T03:31:44;10.50;90.10
51661;DHT22;37741;49.748;8.490;2023-03-14T03:34:11;10.50;90.10
51661;DHT22;37741;49.748;8.490;2023-03-14T03:36:37;10.50;90.10
51661;DHT22;37741;49.748;8.490;2023-03-14T03:39:03;10.50;90.10
51661;DHT22;37741;49.748;8.490;2023-03-14T03:41:29;10.50;90.00
51661;DHT22;37741;49.748;8.490;2023-03-14T03:43:55;10.50;90.00
51661;DHT22;37741;49.748;8.490;2023-03-14T03:46:21;10.40;90.00
51661;DHT22;37741;49.748;8.490;2023-03-14T03:48:46;10.40;90.00
51661;DHT22;37741;49.748;8.490;2023-03-14T03:51:13;10.50;90.00
51661;DHT22;37741;49.748;8.490;2023-03-14T03:53:40;10.50;90.00
51661;DHT22;37741;49.748;8.490;2023-03-14T03:56:06;10.50;89.90
51661;DHT22;37741;49.748;8.490;2023-03-14T03:58:32;10.40;89.80
51661;DHT22;37741;49.748;8.490;2023-03-14T04:00:57;10.50;89.80
51661;DHT22;37741;49.748;8.490;2023-03-14T04:03:23;10.40;89.70
51661;DHT22;37741;49.748;8.490;2023-03-14T04:06:01;10.50;89.60
51661;DHT22;37741;49.748;8.490;2023-03-14T04:08:28;10.40;89.50
51661;DHT22;37741;49.748;8.490;2023-03-14T04:10:58;10.40;89.50
51661;DHT22;37741;49.748;8.490;2023-03-14T04:13:25;10.40;89.30
51661;DHT22;37741;49.748;8.490;2023-03-14T04:15:51;10.40;89.40
51661;DHT22;37741;49.748;8.490;2023-03-14T04:18:17;10.40;89.20
51661;DHT22;37741;49.748;8.490;2023-03-14T04:20:43;10.40;89.20
51661;DHT22;37741;49.748;8.490;2023-03-14T04:23:09;10.40;89.30
51661;DHT22;37741;49.748;8.490;2023-03-14T04:25:35;10.40;89.10
51661;DHT22;37741;49.748;8.490;2023-03-14T04:28:01;10.40;88.90
51661;DHT22;37741;49.748;8.490;2023-03-14T04:30:26;10.40;89.10
51661;DHT22;37741;49.748;8.490;2023-03-14T04:32:52;10.40;88.90
51661;DHT22;37741;49.748;8.490;2023-03-14T04:35:18;10.40;89.00
51661;DHT22;37741;49.748;8.490;2023-03-14T04:37:44;10.40;89.10
51661;DHT22;37741;49.748;8.490;2023-03-14T04:40:10;10.40;88.90
51661;DHT22;37741;49.748;8.490;2023-03-14T04:42:36;10.40;88.80
51661;DHT22;37741;49.748;8.490;2023-03-14T04:45:02;10.40;88.50
51661;DHT22;37741;49.748;8.490;2023-03-14T04:47:28;10.40;88.60
51661;DHT22;37741;49.748;8.490;2023-03-14T04:49:54;10.40;89.50
51661;DHT22;37741;49.748;8.490;2023-03-14T04:52:20;10.40;88.70
51661;DHT22;37741;49.748;8.490;2023-03-14T04:54:45;10.40;88.80
51661;DHT22;37741;49.748;8.490;2023-03-14T04:57:11;10.40;89.30
51661;DHT22;37741;49.748;8.490;2023-03-14T04:59:36;10.40;88.70
51661;DHT22;37741;49.748;8.490;2023-03-14T05:02:02;10.40;88.00
51661;DHT22;37741;49.748;8.490;2023-03-14T05:04:27;10.40;88.50
51661;DHT22;37741;49.748;8.490;2023-03-14T05:06:54;10.40;88.00
51661;DHT22;37741;49.748;8.490;2023-03-14T05:09:20;10.40;88.40
51661;DHT22;37741;49.748;8.490;2023-03-14T05:11:45;10.30;88.30
51661;DHT22;37741;49.748;8.490;2023-03-14T05:14:11;10.30;87.80
51661;DHT22;37741;49.748;8.490;2023-03-14T05:16:37;10.30;88.20
51661;DHT22;37741;49.748;8.490;2023-03-14T05:19:03;10.30;88.20
51661;DHT22;37741;49.748;8.490;2023-03-14T05:21:28;10.30;88.20
51661;DHT22;37741;49.748;8.490;2023-03-14T05:23:54;10.30;88.20
51661;DHT22;37741;49.748;8.490;2023-03-14T05:26:19;10.30;88.30
51661;DHT22;37741;49.748;8.490;2023-03-14T05:28:45;10.30;89.00
51661;DHT22;37741;49.748;8.490;2023-03-14T05:31:10;10.30;88.30
51661;DHT22;37741;49.748;8.490;2023-03-14T05:33:36;10.30;88.10
51661;DHT22;37741;49.748;8.490;2023-03-14T05:36:02;10.30;87.60
51661;DHT22;37741;49.748;8.490;2023-03-14T05:38:27;10.30;88.00
51661;DHT22;37741;49.748;8.490;2023-03-14T05:40:53;10.30;87.80
51661;DHT22;37741;49.748;8.490;2023-03-14T05:43:19;10.30;87.80
51661;DHT22;37741;49.748;8.490;2023-03-14T05:45:44;10.30;87.90
51661;DHT22;37741;49.748;8.490;2023-03-14T05:48:10;10.30;87.80
51661;DHT22;37741;49.748;8.490;2023-03-14T05:50:36;10.30;87.80
51661;DHT22;37741;49.748;8.490;2023-03-14T05:53:02;10.30;88.10
51661;DHT22;37741;49.748;8.490;2023-03-14T05:55:28;10.30;87.80
51661;DHT22;37741;49.748;8.490;2023-03-14T05:57:54;10.30;87.60
51661;DHT22;37741;49.748;8.490;2023-03-14T06:00:20;10.30;87.90
51661;DHT22;37741;49.748;8.490;2023-03-14T06:02:46;10.30;87.50
51661;DHT22;37741;49.748;8.490;2023-03-14T06:05:12;10.30;87.30
51661;DHT22;37741;49.748;8.490;2023-03-14T06:07:38;10.30;87.70
51661;DHT22;37741;49.748;8.490;2023-03-14T06:10:04;10.30;87.60
51661;DHT22;37741;49.748;8.490;2023-03-14T06:12:30;10.30;88.10
51661;DHT22;37741;49.748;8.490;2023-03-14T06:14:56;10.30;87.90
51661;DHT22;37741;49.748;8.490;2023-03-14T06:17:21;10.30;88.10
51661;DHT22;37741;49.748;8.490;2023-03-14T06:19:47;10.30;88.10
51661;DHT22;37741;49.748;8.490;2023-03-14T06:22:13;10.30;88.20
51661;DHT22;37741;49.748;8.490;2023-03-14T06:24:38;10.30;87.90
51661;DHT22;37741;49.748;8.490;2023-03-14T06:27:04;10.20;88.00
51661;DHT22;37741;49.748;8.490;2023-03-14T06:29:30;10.20;88.10
51661;DHT22;37741;49.748;8.490;2023-03-14T06:31:56;10.30;88.20
51661;DHT22;37741;49.748;8.490;2023-03-14T06:34:21;10.20;88.30
51661;DHT22;37741;49.748;8.490;2023-03-14T06:36:47;10.30;88.30
51661;DHT22;37741;49.748;8.490;2023-03-14T06:39:13;10.30;88.30
51661;DHT22;37741;49.748;8.490;2023-03-14T06:41:39;10.20;88.30
51661;DHT22;37741;49.748;8.490;2023-03-14T06:44:04;10.30;88.50
51661;DHT22;37741;49.748;8.490;2023-03-14T06:46:31;10.30;88.30
51661;DHT22;37741;49.748;8.490;2023-03-14T06:48:56;10.30;88.50
51661;DHT22;37741;49.748;8.490;2023-03-14T06:51:22;10.20;88.00
51661;DHT22;37741;49.748;8.490;2023-03-14T06:53:48;10.20;88.00
51661;DHT22;37741;49.748;8.490;2023-03-14T06:56:14;10.20;88.10
51661;DHT22;37741;49.748;8.490;2023-03-14T06:58:39;10.30;88.00
51661;DHT22;37741;49.748;8.490;2023-03-14T07:01:05;10.30;88.60
51661;DHT22;37741;49.748;8.490;2023-03-14T07:03:32;10.20;87.60
51661;DHT22;37741;49.748;8.490;2023-03-14T07:05:58;10.30;87.60
51661;DHT22;37741;49.748;8.490;2023-03-14T07:08:23;10.20;87.50
51661;DHT22;37741;49.748;8.490;2023-03-14T07:10:49;10.20;87.50
51661;DHT22;37741;49.748;8.490;2023-03-14T07:13:15;10.20;87.40
51661;DHT22;37741;49.748;8.490;2023-03-14T07:15:40;10.20;87.20
51661;DHT22;37741;49.748;8.490;2023-03-14T07:18:06;10.20;87.30
51661;DHT22;37741;49.748;8.490;2023-03-14T07:20:32;10.20;87.40
51661;DHT22;37741;49.748;8.490;2023-03-14T07:22:58;10.20;87.30
51661;DHT22;37741;49.748;8.490;2023-03-14T07:25:25;10.20;87.40
51661;DHT22;37741;49.748;8.490;2023-03-14T07:27:51;10.20;87.50
51661;DHT22;37741;49.748;8.490;2023-03-14T07:30:17;10.20;87.40
51661;DHT22;37741;49.748;8.490;2023-03-14T07:32:43;10.20;87.40
51661;DHT22;37741;49.748;8.490;2023-03-14T07:35:09;10.20;87.30
51661;DHT22;37741;49.748;8.490;2023-03-14T07:37:34;10.20;87.50
51661;DHT22;37741;49.748;8.490;2023-03-14T07:40:00;10.20;87.40
51661;DHT22;37741;49.748;8.490;2023-03-14T07:42:26;10.20;87.30
51661;DHT22;37741;49.748;8.490;2023-03-14T07:44:51;10.20;87.40
51661;DHT22;37741;49.748;8.490;2023-03-14T07:47:17;10.20;87.50
51661;DHT22;37741;49.748;8.490;2023-03-14T07:49:43;10.30;87.60
51661;DHT22;37741;49.748;8.490;2023-03-14T07:52:08;10.20;87.40
51661;DHT22;37741;49.748;8.490;2023-03-14T07:54:34;10.30;87.60
51661;DHT22;37741;49.748;8.490;2023-03-14T07:57:00;10.20;87.50
51661;DHT22;37741;49.748;8.490;2023-03-14T07:59:26;10.30;87.60
51661;DHT22;37741;49.748;8.490;2023-03-14T08:01:52;10.30;87.60
51661;DHT22;37741;49.748;8.490;2023-03-14T08:04:18;10.30;87.60
51661;DHT22;37741;49.748;8.490;2023-03-14T08:06:44;10.30;87.60
51661;DHT22;37741;49.748;8.490;2023-03-14T08:09:09;10.30;87.60
51661;DHT22;37741;49.748;8.490;2023-03-14T08:11:36;10.30;87.50
51661;DHT22;37741;49.748;8.490;2023-03-14T08:14:01;10.30;87.50
51661;DHT22;37741;49.748;8.490;2023-03-14T08:16:27;10.30;87.50
51661;DHT22;37741;49.748;8.490;2023-03-14T08:18:53;10.30;87.40
51661;DHT22;37741;49.748;8.490;2023-03-14T08:21:18;10.30;87.40
51661;DHT22;37741;49.748;8.490;2023-03-14T08:23:44;10.30;87.30
51661;DHT22;37741;49.748;8.490;2023-03-14T08:26:10;10.30;87.40
51661;DHT22;37741;49.748;8.490;2023-03-14T08:28:36;10.30;87.50
51661;DHT22;37741;49.748;8.490;2023-03-14T08:31:02;10.30;87.40
51661;DHT22;37741;49.748;8.490;2023-03-14T08:33:28;10.30;87.30
51661;DHT22;37741;49.748;8.490;2023-03-14T08:35:56;10.30;87.20
51661;DHT22;37741;49.748;8.490;2023-03-14T08:38:22;10.30;87.30
51661;DHT22;37741;49.748;8.490;2023-03-14T08:40:48;10.40;87.20
51661;DHT22;37741;49.748;8.490;2023-03-14T08:43:16;10.40;87.30
51661;DHT22;37741;49.748;8.490;2023-03-14T08:45:42;10.40;87.30
51661;DHT22;37741;49.748;8.490;2023-03-14T08:48:07;10.40;87.30
51661;DHT22;37741;49.748;8.490;2023-03-14T08:50:33;10.40;87.30
51661;DHT22;37741;49.748;8.490;2023-03-14T08:52:59;10.40;87.30
51661;DHT22;37741;49.748;8.490;2023-03-14T08:55:26;10.40;88.10
51661;DHT22;37741;49.748;8.490;2023-03-14T08:57:53;10.50;87.40
51661;DHT22;37741;49.748;8.490;2023-03-14T09:00:19;10.50;87.40
51661;DHT22;37741;49.748;8.490;2023-03-14T09:02:45;10.50;87.30
51661;DHT22;37741;49.748;8.490;2023-03-14T09:05:11;10.50;87.20
51661;DHT22;37741;49.748;8.490;2023-03-14T09:07:38;10.50;87.30
51661;DHT22;37741;49.748;8.490;2023-03-14T09:10:05;10.50;87.20
51661;DHT22;37741;49.748;8.490;2023-03-14T09:12:31;10.60;87.30
51661;DHT22;37741;49.748;8.490;2023-03-14T09:14:57;10.50;87.20
51661;DHT22;37741;49.748;8.490;2023-03-14T09:17:22;10.60;87.30
51661;DHT22;37741;49.748;8.490;2023-03-14T09:19:48;10.60;87.40
51661;DHT22;37741;49.748;8.490;2023-03-14T09:22:14;10.60;87.50
51661;DHT22;37741;49.748;8.490;2023-03-14T09:24:40;10.70;88.10
51661;DHT22;37741;49.748;8.490;2023-03-14T09:27:06;10.70;87.40
51661;DHT22;37741;49.748;8.490;2023-03-14T09:29:33;10.70;87.40
51661;DHT22;37741;49.748;8.490;2023-03-14T09:31:58;10.70;87.40
51661;DHT22;37741;49.748;8.490;2023-03-14T09:34:24;10.70;87.50
51661;DHT22;37741;49.748;8.490;2023-03-14T09:36:50;10.70;87.60
51661;DHT22;37741;49.748;8.490;2023-03-14T09:39:16;10.70;87.50
51661;DHT22;37741;49.748;8.490;2023-03-14T09:41:47;10.80;87.60
51661;DHT22;37741;49.748;8.490;2023-03-14T09:44:24;10.80;87.60
51661;DHT22;37741;49.748;8.490;2023-03-14T09:46:53;10.80;87.60
51661;DHT22;37741;49.748;8.490;2023-03-14T09:49:23;10.80;87.50
51661;DHT22;37741;49.748;8.490;2023-03-14T09:51:53;10.90;87.50
51661;DHT22;37741;49.748;8.490;2023-03-14T09:54:42;10.90;87.50
51661;DHT22;37741;49.748;8.490;2023-03-14T09:57:13;10.90;87.40
51661;DHT22;37741;49.748;8.490;2023-03-14T09:59:43;10.90;87.30
51661;DHT22;37741;49.748;8.490;2023-03-14T10:02:21;10.90;87.20
51661;DHT22;37741;49.748;8.490;2023-03-14T10:04:50;11.00;87.20
51661;DHT22;37741;49.748;8.490;2023-03-14T10:07:19;11.00;87.30
51661;DHT22;37741;49.748;8.490;2023-03-14T10:09:49;11.00;87.40
51661;DHT22;37741;49.748;8.490;2023-03-14T10:12:16;11.00;87.40
51661;DHT22;37741;49.748;8.490;2023-03-14T10:14:52;11.00;87.40
51661;DHT22;37741;49.748;8.490;2023-03-14T10:17:20;11.00;87.50
51661;DHT22;37741;49.748;8.490;2023-03-14T10:19:57;11.10;87.60
51661;DHT22;37741;49.748;8.490;2023-03-14T10:22:27;11.10;88.10
51661;DHT22;37741;49.748;8.490;2023-03-14T10:25:01;11.10;87.40
51661;DHT22;37741;49.748;8.490;2023-03-14T10:27:29;11.20;87.50
51661;DHT22;37741;49.748;8.490;2023-03-14T10:30:01;11.20;87.50
51661;DHT22;37741;49.748;8.490;2023-03-14T10:32:36;11.20;87.50
51661;DHT22;37741;49.748;8.490;2023-03-14T10:35:06;11.20;87.50
51661;DHT22;37741;49.748;8.490;2023-03-14T10:37:33;11.20;87.70
51661;DHT22;37741;49.748;8.490;2023-03-14T10:40:00;11.20;87.60
51661;DHT22;37741;49.748;8.490;2023-03-14T10:42:41;11.20;87.70
51661;DHT22;37741;49.748;8.490;2023-03-14T10:45:28;11.20;87.40
51661;DHT22;37741;49.748;8.490;2023-03-14T10:47:54;11.20;87.50
51661;DHT22;37741;49.748;8.490;2023-03-14T10:50:29;11.30;87.50
51661;DHT22;37741;49.748;8.490;2023-03-14T10:52:56;11.30;87.80
51661;DHT22;37741;49.748;8.490;2023-03-14T10:55:23;11.30;87.80
51661;DHT22;37741;49.748;8.490;2023-03-14T10:57:50;11.30;87.90
51661;DHT22;37741;49.748;8.490;2023-03-14T11:00:20;11.30;87.90
51661;DHT22;37741;49.748;8.490;2023-03-14T11:05:57;11.30;88.20
51661;DHT22;37741;49.748;8.490;2023-03-14T11:08:26;11.30;88.20
51661;DHT22;37741;49.748;8.490;2023-03-14T11:11:07;11.30;88.30
51661;DHT22;37741;49.748;8.490;2023-03-14T11:13:41;11.30;88.40
51661;DHT22;37741;49.748;8.490;2023-03-14T11:16:22;11.30;88.50
51661;DHT22;37741;49.748;8.490;2023-03-14T11:27:03;11.40;88.80
51661;DHT22;37741;49.748;8.490;2023-03-14T11:29:44;11.40;88.90
51661;DHT22;37741;49.748;8.490;2023-03-14T11:34:54;11.40;88.60
51661;DHT22;37741;49.748;8.490;2023-03-14T11:37:32;11.40;88.80
51661;DHT22;37741;49.748;8.490;2023-03-14T11:40:19;11.40;89.10
51661;DHT22;37741;49.748;8.490;2023-03-14T11:43:34;11.40;88.50
51661;DHT22;37741;49.748;8.490;2023-03-14T11:45:38;11.40;88.40
51661;DHT22;37741;49.748;8.490;2023-03-14T11:48:44;11.50;88.30
51661;DHT22;37741;49.748;8.490;2023-03-14T11:51:20;11.50;88.20
51661;DHT22;37741;49.748;8.490;2023-03-14T11:57:01;11.50;87.50
51661;DHT22;37741;49.748;8.490;2023-03-14T11:59:33;11.50;87.60
51661;DHT22;37741;49.748;8.490;2023-03-14T12:10:58;11.50;87.70
51661;DHT22;37741;49.748;8.490;2023-03-14T12:13:30;11.50;85.00
51661;DHT22;37741;49.748;8.490;2023-03-14T12:15:59;11.50;84.80
51661;DHT22;37741;49.748;8.490;2023-03-14T12:18:32;11.40;81.80
51661;DHT22;37741;49.748;8.490;2023-03-14T12:21:05;11.40;81.80
51661;DHT22;37741;49.748;8.490;2023-03-14T12:23:58;11.40;80.90
51661;DHT22;37741;49.748;8.490;2023-03-14T12:26:26;11.40;82.00
51661;DHT22;37741;49.748;8.490;2023-03-14T12:45:29;11.40;80.80
51661;DHT22;37741;49.748;8.490;2023-03-14T13:01:27;11.50;79.30
51661;DHT22;37741;49.748;8.490;2023-03-14T13:04:12;11.50;79.60
51661;DHT22;37741;49.748;8.490;2023-03-14T13:11:56;11.40;79.10
51661;DHT22;37741;49.748;8.490;2023-03-14T13:14:28;11.40;77.50
51661;DHT22;37741;49.748;8.490;2023-03-14T13:16:54;11.40;77.40
51661;DHT22;37741;49.748;8.490;2023-03-14T13:19:26;11.40;76.70
51661;DHT22;37741;49.748;8.490;2023-03-14T13:22:05;11.40;75.40
51661;DHT22;37741;49.748;8.490;2023-03-14T13:24:34;11.40;75.20
51661;DHT22;37741;49.748;8.490;2023-03-14T13:27:00;11.40;76.60
51661;DHT22;37741;49.748;8.490;2023-03-14T13:29:30;11.50;76.80
51661;DHT22;37741;49.748;8.490;2023-03-14T13:31:59;11.50;75.00
51661;DHT22;37741;49.748;8.490;2023-03-14T13:34:26;11.50;75.90
51661;DHT22;37741;49.748;8.490;2023-03-14T13:36:53;11.50;75.70
51661;DHT22;37741;49.748;8.490;2023-03-14T13:39:22;11.40;75.10
51661;DHT22;37741;49.748;8.490;2023-03-14T13:41:53;11.40;75.10
51661;DHT22;37741;49.748;8.490;2023-03-14T13:46:48;11.40;76.50
51661;DHT22;37741;49.748;8.490;2023-03-14T13:49:24;11.40;76.40
51661;DHT22;37741;49.748;8.490;2023-03-14T13:51:50;11.40;76.40
51661;DHT22;37741;49.748;8.490;2023-03-14T13:54:18;11.40;76.20
51661;DHT22;37741;49.748;8.490;2023-03-14T13:56:45;11.40;75.70
51661;DHT22;37741;49.748;8.490;2023-03-14T13:59:24;11.40;75.10
51661;DHT22;37741;49.748;8.490;2023-03-14T14:01:51;11.40;75.30
51661;DHT22;37741;49.748;8.490;2023-03-14T14:04:26;11.40;75.40
51661;DHT22;37741;49.748;8.490;2023-03-14T14:07:01;11.40;75.80
51661;DHT22;37741;49.748;8.490;2023-03-14T14:09:40;11.50;75.80
51661;DHT22;37741;49.748;8.490;2023-03-14T14:12:30;11.60;76.20
51661;DHT22;37741;49.748;8.490;2023-03-14T14:15:27;11.60;75.60
51661;DHT22;37741;49.748;8.490;2023-03-14T14:18:06;11.70;74.90
51661;DHT22;37741;49.748;8.490;2023-03-14T14:20:44;11.70;74.80
51661;DHT22;37741;49.748;8.490;2023-03-14T14:23:12;11.70;74.90
51661;DHT22;37741;49.748;8.490;2023-03-14T14:25:38;11.70;75.50
51661;DHT22;37741;49.748;8.490;2023-03-14T14:33:41;11.70;72.10
51661;DHT22;37741;49.748;8.490;2023-03-14T14:36:23;11.60;71.20
51661;DHT22;37741;49.748;8.490;2023-03-14T14:39:02;11.70;72.10
51661;DHT22;37741;49.748;8.490;2023-03-14T14:41:32;11.70;72.90
51661;DHT22;37741;49.748;8.490;2023-03-14T14:43:59;11.80;72.70
51661;DHT22;37741;49.748;8.490;2023-03-14T14:46:28;11.80;72.30
51661;DHT22;37741;49.748;8.490;2023-03-14T14:48:57;11.80;71.80
51661;DHT22;37741;49.748;8.490;2023-03-14T14:51:25;11.90;71.40
51661;DHT22;37741;49.748;8.490;2023-03-14T14:54:03;12.00;70.90
51661;DHT22;37741;49.748;8.490;2023-03-14T14:56:34;12.00;69.80
51661;DHT22;37741;49.748;8.490;2023-03-14T14:59:01;12.00;70.20
51661;DHT22;37741;49.748;8.490;2023-03-14T15:01:37;12.00;69.90
51661;DHT22;37741;49.748;8.490;2023-03-14T15:04:10;12.00;70.00
51661;DHT22;37741;49.748;8.490;2023-03-14T15:06:37;12.00;69.80
51661;DHT22;37741;49.748;8.490;2023-03-14T15:09:05;12.10;69.40
51661;DHT22;37741;49.748;8.490;2023-03-14T15:11:30;12.10;69.70
51661;DHT22;37741;49.748;8.490;2023-03-14T15:13:56;12.00;68.90
51661;DHT22;37741;49.748;8.490;2023-03-14T15:16:25;12.00;68.40
51661;DHT22;37741;49.748;8.490;2023-03-14T15:18:58;12.00;67.60
51661;DHT22;37741;49.748;8.490;2023-03-14T15:21:25;11.90;67.40
51661;DHT22;37741;49.748;8.490;2023-03-14T15:23:51;11.90;68.10
51661;DHT22;37741;49.748;8.490;2023-03-14T15:26:19;11.90;68.60
51661;DHT22;37741;49.748;8.490;2023-03-14T15:28:45;11.90;67.80
51661;DHT22;37741;49.748;8.490;2023-03-14T15:31:14;12.00;67.60
51661;DHT22;37741;49.748;8.490;2023-03-14T15:33:41;12.10;67.60
51661;DHT22;37741;49.748;8.490;2023-03-14T15:36:19;12.20;66.40
51661;DHT22;37741;49.748;8.490;2023-03-14T15:38:46;12.40;66.00
51661;DHT22;37741;49.748;8.490;2023-03-14T15:41:11;12.50;66.40
51661;DHT22;37741;49.748;8.490;2023-03-14T15:43:37;12.60;65.60
51661;DHT22;37741;49.748;8.490;2023-03-14T15:46:03;12.70;65.70
51661;DHT22;37741;49.748;8.490;2023-03-14T15:48:31;12.80;63.20
51661;DHT22;37741;49.748;8.490;2023-03-14T15:50:57;12.80;64.30
51661;DHT22;37741;49.748;8.490;2023-03-14T15:53:22;12.80;63.70
51661;DHT22;37741;49.748;8.490;2023-03-14T15:55:48;12.80;64.70
51661;DHT22;37741;49.748;8.490;2023-03-14T15:58:18;12.80;64.20
51661;DHT22;37741;49.748;8.490;2023-03-14T16:00:44;12.80;64.20
51661;DHT22;37741;49.748;8.490;2023-03-14T16:03:09;12.90;63.80
51661;DHT22;37741;49.748;8.490;2023-03-14T16:05:37;12.90;63.40
51661;DHT22;37741;49.748;8.490;2023-03-14T16:08:03;13.00;63.40
51661;DHT22;37741;49.748;8.490;2023-03-14T16:10:30;12.90;63.40
51661;DHT22;37741;49.748;8.490;2023-03-14T16:12:56;13.00;64.50
51661;DHT22;37741;49.748;8.490;2023-03-14T16:15:21;12.90;63.20
51661;DHT22;37741;49.748;8.490;2023-03-14T16:17:47;13.00;63.70
51661;DHT22;37741;49.748;8.490;2023-03-14T16:20:14;12.90;63.80
51661;DHT22;37741;49.748;8.490;2023-03-14T16:22:39;13.00;62.20
51661;DHT22;37741;49.748;8.490;2023-03-14T16:25:06;12.90;62.70
51661;DHT22;37741;49.748;8.490;2023-03-14T16:27:32;12.90;62.10
51661;DHT22;37741;49.748;8.490;2023-03-14T16:29:58;12.80;63.20
51661;DHT22;37741;49.748;8.490;2023-03-14T16:32:27;12.80;63.70
51661;DHT22;37741;49.748;8.490;2023-03-14T16:34:53;12.80;64.10
51661;DHT22;37741;49.748;8.490;2023-03-14T16:37:19;12.70;64.50
51661;DHT22;37741;49.748;8.490;2023-03-14T16:39:47;12.70;63.30
51661;DHT22;37741;49.748;8.490;2023-03-14T16:42:14;12.70;63.50
51661;DHT22;37741;49.748;8.490;2023-03-14T16:44:40;12.70;63.90
51661;DHT22;37741;49.748;8.490;2023-03-14T16:47:06;12.60;63.60
51661;DHT22;37741;49.748;8.490;2023-03-14T16:49:32;12.50;63.00
51661;DHT22;37741;49.748;8.490;2023-03-14T16:51:57;12.50;65.60
51661;DHT22;37741;49.748;8.490;2023-03-14T16:54:23;12.40;64.20
51661;DHT22;37741;49.748;8.490;2023-03-14T16:56:49;12.40;66.30
51661;DHT22;37741;49.748;8.490;2023-03-14T16:59:14;12.30;66.80